createdAt,value
2023-05-09T00:01:17.794Z,76.76
2023-05-09T00:03:46.361Z,77.10
2023-05-09T00:06:17.078Z,76.81
2023-05-09T00:08:45.896Z,76.64
2023-05-09T00:11:39.749Z,76.27
2023-05-09T00:14:08.441Z,76.03
2023-05-09T00:16:37.370Z,75.56
2023-05-09T00:19:06.019Z,75.64
2023-05-09T00:21:34.605Z,75.74
2023-05-09T00:24:03.133Z,76.25
2023-05-09T00:26:31.455Z,75.78
2023-05-09T00:28:59.574Z,75.74
2023-05-09T00:31:28.665Z,75.85
2023-05-09T00:33:57.350Z,75.89
2023-05-09T00:36:25.597Z,75.91
2023-05-09T00:38:54.175Z,75.93
2023-05-09T00:41:22.436Z,75.91
2023-05-09T00:43:51.842Z,76.10
2023-05-09T00:46:20.120Z,76.01
2023-05-09T00:48:51.362Z,76.28
2023-05-09T00:51:21.273Z,76.38
2023-05-09T00:53:49.279Z,75.97
2023-05-09T00:56:17.648Z,75.24
2023-05-09T00:58:45.715Z,75.78
2023-05-09T01:01:14.292Z,75.82
2023-05-09T01:03:43.628Z,76.39
2023-05-09T01:06:22.700Z,76.84
2023-05-09T01:09:15.510Z,77.07
2023-05-09T01:12:19.677Z,77.40
2023-05-09T01:15:06.803Z,77.55
2023-05-09T01:17:41.949Z,76.95
2023-05-09T01:20:19.721Z,76.78
2023-05-09T01:23:13.632Z,76.42
2023-05-09T01:26:27.764Z,76.45
2023-05-09T01:29:20.499Z,76.46
2023-05-09T01:31:52.255Z,77.05
2023-05-09T01:34:25.353Z,77.25
2023-05-09T01:36:59.865Z,77.16
2023-05-09T01:39:32.560Z,76.92
2023-05-09T01:42:05.224Z,76.69
2023-05-09T01:44:45.482Z,76.61
2023-05-09T01:47:17.339Z,76.57
2023-05-09T01:49:48.735Z,76.27
2023-05-09T01:52:20.820Z,76.88
2023-05-09T01:54:52.512Z,77.09
2023-05-09T01:57:23.753Z,76.81
2023-05-09T01:59:53.221Z,76.94
2023-05-09T02:02:21.853Z,76.59
2023-05-09T02:04:51.365Z,76.53
2023-05-09T02:07:21.773Z,76.16
2023-05-09T02:09:57.019Z,76.40
2023-05-09T02:12:25.386Z,76.56
2023-05-09T02:14:53.759Z,76.42
2023-05-09T02:17:22.271Z,76.62
2023-05-09T02:19:50.928Z,76.57
2023-05-09T02:22:23.302Z,76.71
2023-05-09T02:24:52.331Z,76.49
2023-05-09T02:27:20.868Z,76.04
2023-05-09T02:29:55.286Z,76.23
2023-05-09T02:32:27.516Z,76.19
2023-05-09T02:34:58.525Z,75.76
2023-05-09T02:37:28.424Z,75.63
2023-05-09T02:39:59.355Z,75.46
2023-05-09T02:42:32.338Z,75.39
2023-05-09T02:45:02.382Z,75.26
2023-05-09T02:47:32.497Z,75.29
2023-05-09T02:50:03.032Z,76.03
2023-05-09T02:52:32.317Z,77.00
2023-05-09T02:55:01.761Z,77.66
2023-05-09T02:57:30.441Z,77.82
2023-05-09T02:59:58.869Z,77.49
2023-05-09T03:02:27.496Z,77.44
2023-05-09T03:04:57.257Z,77.01
2023-05-09T03:07:25.991Z,77.03
2023-05-09T03:09:54.424Z,76.69
2023-05-09T03:12:22.700Z,76.16
2023-05-09T03:14:53.648Z,74.36
2023-05-09T03:17:23.569Z,73.66
2023-05-09T03:19:52.445Z,72.95
2023-05-09T03:22:23.481Z,72.00
2023-05-09T03:24:57.899Z,71.93
2023-05-09T03:27:46.266Z,72.45
2023-05-09T03:30:16.384Z,71.80
2023-05-09T03:32:45.923Z,70.71
2023-05-09T03:35:17.625Z,69.98
2023-05-09T03:37:48.194Z,68.53
2023-05-09T03:40:17.044Z,67.78
2023-05-09T03:42:51.968Z,66.47
2023-05-09T03:45:21.599Z,64.72
2023-05-09T03:47:49.920Z,64.16
2023-05-09T03:50:19.261Z,63.47
2023-05-09T03:52:47.847Z,61.56
2023-05-09T03:55:18.895Z,59.46
2023-05-09T03:57:47.365Z,59.96
2023-05-09T04:00:16.565Z,59.07
2023-05-09T04:02:51.239Z,58.75
2023-05-09T04:05:40.048Z,59.21
2023-05-09T04:08:11.709Z,58.27
2023-05-09T04:10:40.507Z,56.79
2023-05-09T04:13:08.870Z,56.75
2023-05-09T04:15:37.446Z,56.25
2023-05-09T04:18:06.200Z,54.39
2023-05-09T04:20:35.038Z,53.53
2023-05-09T04:23:05.346Z,53.18
2023-05-09T04:25:35.472Z,53.61
2023-05-09T04:28:04.877Z,52.27
2023-05-09T04:30:33.546Z,51.05
2023-05-09T04:33:02.749Z,49.53
2023-05-09T04:35:30.919Z,47.85
2023-05-09T04:38:00.170Z,47.23
2023-05-09T04:40:28.816Z,45.94
2023-05-09T04:47:32.315Z,44.86
2023-05-09T04:50:01.520Z,44.65
2023-05-09T04:52:30.383Z,43.27
2023-05-09T04:54:58.900Z,42.51
2023-05-09T04:57:30.766Z,42.68
2023-05-09T04:59:59.352Z,43.44
2023-05-09T05:02:27.839Z,43.72
2023-05-09T05:05:48.092Z,45.20
2023-05-09T05:08:19.363Z,48.74
2023-05-09T05:10:52.052Z,51.02
2023-05-09T05:13:21.800Z,50.38
2023-05-09T05:16:19.284Z,49.82
2023-05-09T05:18:48.501Z,49.74
2023-05-09T05:21:17.720Z,49.67
2023-05-09T05:23:46.595Z,49.40
2023-05-09T05:26:49.073Z,50.26
2023-05-09T05:29:18.203Z,49.92
2023-05-09T05:31:46.760Z,50.19
2023-05-09T05:34:17.482Z,50.21
2023-05-09T05:36:48.904Z,48.73
2023-05-09T05:39:41.900Z,46.91
2023-05-09T05:42:10.367Z,47.82
2023-05-09T05:44:38.951Z,46.69
2023-05-09T05:47:07.425Z,45.95
2023-05-09T05:49:35.901Z,46.36
2023-05-09T05:52:04.962Z,45.11
2023-05-09T05:54:34.094Z,44.07
2023-05-09T05:57:28.299Z,44.79
2023-05-09T05:59:57.229Z,43.90
2023-05-09T06:02:26.444Z,44.71
2023-05-09T06:04:56.487Z,43.57
2023-05-09T06:07:26.189Z,43.67
2023-05-09T06:09:54.467Z,43.14
2023-05-09T06:12:22.745Z,43.86
2023-05-09T06:14:50.911Z,43.35
2023-05-09T06:17:19.845Z,43.40
2023-05-09T06:19:48.996Z,41.82
2023-05-09T06:22:17.474Z,42.05
2023-05-09T06:24:45.871Z,42.28
2023-05-09T06:31:21.323Z,43.15
2023-05-09T06:33:52.162Z,42.72
2023-05-09T06:36:20.318Z,42.62
2023-05-09T06:38:48.813Z,43.67
2023-05-09T06:41:17.506Z,44.13
2023-05-09T06:43:48.050Z,44.34
2023-05-09T06:46:16.973Z,44.14
2023-05-09T06:48:46.123Z,44.25
2023-05-09T06:51:14.393Z,44.18
2023-05-09T06:53:43.208Z,43.39
2023-05-09T06:56:12.591Z,43.28
2023-05-09T06:58:41.245Z,43.32
2023-05-09T07:01:09.687Z,44.31
2023-05-09T07:03:38.106Z,43.42
2023-05-09T07:06:06.922Z,43.91
2023-05-09T07:08:35.062Z,44.65
2023-05-09T07:11:03.272Z,45.77
2023-05-09T07:13:32.059Z,46.47
2023-05-09T07:16:00.570Z,45.92
2023-05-09T07:18:29.117Z,46.98
2023-05-09T07:21:00.814Z,47.79
2023-05-09T07:23:30.488Z,48.05
2023-05-09T07:25:59.685Z,48.75
2023-05-09T07:28:28.470Z,50.04
2023-05-09T07:30:57.120Z,50.28
2023-05-09T07:33:25.567Z,50.67
2023-05-09T07:35:54.021Z,49.87
2023-05-09T07:38:22.757Z,49.02
2023-05-09T07:41:16.935Z,50.44
2023-05-09T07:43:45.562Z,49.12
2023-05-09T07:46:14.093Z,49.99
2023-05-09T07:48:42.618Z,49.91
2023-05-09T07:51:11.224Z,49.69
2023-05-09T07:53:39.787Z,50.85
2023-05-09T07:56:33.462Z,50.73
2023-05-09T07:59:03.987Z,50.35
2023-05-09T08:01:32.164Z,48.30
2023-05-09T08:04:00.917Z,50.49
2023-05-09T08:06:31.558Z,49.05
2023-05-09T08:17:57.295Z,47.89
2023-05-09T08:20:26.246Z,48.39
2023-05-09T08:22:54.828Z,49.14
2023-05-09T08:25:23.104Z,49.11
2023-05-09T08:27:53.150Z,50.30
2023-05-09T08:30:23.748Z,51.42
2023-05-09T08:32:52.156Z,50.65
2023-05-09T08:35:20.811Z,51.55
2023-05-09T08:37:49.037Z,51.61
2023-05-09T08:40:17.939Z,49.61
2023-05-09T08:42:50.058Z,49.96
2023-05-09T08:45:28.041Z,50.66
2023-05-09T08:47:57.499Z,49.61
2023-05-09T08:50:29.921Z,49.72
2023-05-09T08:52:58.268Z,50.81
2023-05-09T08:55:28.456Z,51.98
2023-05-09T08:57:58.028Z,51.09
2023-05-09T09:00:28.042Z,51.68
2023-05-09T09:02:59.735Z,49.92
2023-05-09T09:08:08.019Z,50.02
2023-05-09T09:10:41.011Z,50.28
2023-05-09T09:13:13.196Z,48.46
2023-05-09T09:15:47.284Z,48.69
2023-05-09T09:18:22.318Z,50.01
2023-05-09T09:21:03.189Z,46.11
2023-05-09T09:24:17.385Z,46.10
2023-05-09T09:26:52.264Z,46.65
2023-05-09T09:29:23.122Z,48.20
2023-05-09T09:31:55.468Z,49.54
2023-05-09T09:34:25.107Z,49.34
2023-05-09T09:36:54.486Z,49.61
2023-05-09T09:39:23.373Z,49.26
2023-05-09T09:41:51.816Z,48.08
2023-05-09T09:44:22.491Z,47.50
2023-05-09T09:46:56.056Z,47.02
2023-05-09T09:49:27.126Z,47.70
2023-05-09T09:52:00.669Z,48.02
2023-05-09T09:54:32.994Z,49.53
2023-05-09T09:57:04.547Z,49.72
2023-05-09T09:59:33.134Z,49.63
2023-05-09T10:02:08.775Z,49.89
2023-05-09T10:04:47.299Z,49.21
2023-05-09T10:07:19.048Z,49.47
2023-05-09T10:09:49.569Z,49.75
2023-05-09T10:12:20.820Z,50.29
2023-05-09T10:14:53.124Z,52.00
2023-05-09T10:17:25.730Z,52.74
2023-05-09T10:19:56.100Z,52.96
2023-05-09T10:22:25.817Z,53.69
2023-05-09T10:25:08.801Z,53.23
2023-05-09T10:27:39.969Z,52.15
2023-05-09T10:30:20.922Z,52.66
2023-05-09T10:33:09.023Z,52.34
2023-05-09T10:35:47.292Z,52.39
2023-05-09T10:38:19.348Z,52.02
2023-05-09T10:40:48.652Z,50.90
2023-05-09T10:43:17.236Z,51.14
2023-05-09T10:45:50.940Z,52.00
2023-05-09T10:48:19.103Z,51.98
2023-05-09T10:50:53.541Z,50.77
2023-05-09T10:53:26.200Z,51.58
2023-05-09T10:56:01.065Z,53.06
2023-05-09T10:58:38.098Z,52.31
2023-05-09T11:01:11.178Z,50.69
2023-05-09T11:03:57.992Z,52.23
2023-05-09T11:06:45.351Z,53.66
2023-05-09T11:09:34.419Z,53.82
2023-05-09T11:12:06.419Z,54.25
2023-05-09T11:14:47.645Z,54.24
2023-05-09T11:17:23.521Z,54.74
2023-05-09T11:19:52.015Z,55.37
2023-05-09T11:22:33.465Z,56.42
2023-05-09T11:25:17.994Z,57.11
2023-05-09T11:27:51.329Z,56.05
2023-05-09T11:30:22.658Z,55.29
2023-05-09T11:32:59.412Z,55.42
2023-05-09T11:35:28.769Z,55.72
2023-05-09T11:38:04.533Z,56.62
2023-05-09T11:40:35.589Z,56.64
2023-05-09T11:43:04.106Z,56.31
2023-05-09T11:45:34.401Z,57.51
2023-05-09T11:48:09.281Z,58.41
2023-05-09T11:50:38.073Z,57.58
2023-05-09T11:53:10.009Z,57.60
2023-05-09T11:55:39.207Z,57.66
2023-05-09T11:58:10.185Z,57.63
2023-05-09T12:00:47.255Z,57.92
2023-05-09T12:03:16.489Z,58.21
2023-05-09T12:05:45.422Z,56.69
2023-05-09T12:08:14.094Z,56.78
2023-05-09T12:10:42.490Z,56.47
2023-05-09T12:13:10.742Z,55.57
2023-05-09T12:15:39.374Z,56.23
2023-05-09T12:18:10.128Z,55.96
2023-05-09T12:20:43.007Z,55.82
2023-05-09T12:23:15.221Z,55.06
2023-05-09T12:26:11.671Z,55.47
2023-05-09T12:28:44.019Z,55.54
2023-05-09T12:31:13.656Z,55.63
2023-05-09T12:33:42.527Z,55.72
2023-05-09T12:37:04.697Z,55.18
2023-05-09T12:39:33.360Z,54.78
2023-05-09T12:42:02.359Z,55.00
2023-05-09T12:44:31.399Z,54.72
2023-05-09T12:47:03.852Z,54.72
2023-05-09T12:49:52.677Z,54.23
2023-05-09T12:52:23.034Z,54.11
2023-05-09T12:54:53.413Z,54.31
2023-05-09T12:57:57.323Z,55.01
2023-05-09T13:00:27.708Z,54.22
2023-05-09T13:02:56.511Z,53.10
2023-05-09T13:05:25.484Z,53.95
2023-05-09T13:07:57.589Z,53.75
2023-05-09T13:10:30.474Z,54.73
2023-05-09T13:12:59.493Z,54.25
2023-05-09T13:15:28.224Z,53.42
2023-05-09T13:17:56.565Z,52.63
2023-05-09T13:20:34.331Z,52.16
2023-05-09T13:23:02.710Z,51.26
2023-05-09T13:25:31.488Z,52.01
2023-05-09T13:28:06.433Z,51.31
2023-05-09T13:30:35.434Z,51.92
2023-05-09T13:33:29.121Z,51.70
2023-05-09T13:35:57.465Z,51.95
2023-05-09T13:38:26.255Z,52.53
2023-05-09T13:40:54.543Z,52.70
2023-05-09T13:43:24.344Z,52.54
2023-05-09T13:45:52.531Z,51.66
2023-05-09T13:48:21.222Z,50.93
2023-05-09T13:50:51.426Z,51.30
2023-05-09T13:53:20.446Z,51.77
2023-05-09T13:55:48.993Z,51.70
2023-05-09T13:58:17.177Z,52.10
2023-05-09T14:00:45.858Z,52.39
2023-05-09T14:03:14.108Z,53.12
2023-05-09T14:05:43.955Z,52.91
2023-05-09T14:08:13.959Z,53.14
2023-05-09T14:10:44.886Z,53.04
2023-05-09T14:13:13.213Z,53.41
2023-05-09T14:15:41.803Z,53.01
2023-05-09T14:18:10.537Z,52.29
2023-05-09T14:20:40.771Z,51.90
2023-05-09T14:23:09.762Z,51.73
2023-05-09T14:25:40.702Z,52.14
2023-05-09T14:28:09.704Z,51.95
2023-05-09T14:30:38.063Z,51.53
2023-05-09T14:33:07.874Z,52.65
2023-05-09T14:35:37.397Z,52.36
2023-05-09T14:38:07.090Z,52.39
2023-05-09T14:40:35.370Z,52.98
2023-05-09T14:43:04.637Z,52.73
2023-05-09T14:45:35.499Z,53.38
2023-05-09T14:48:04.234Z,52.91
2023-05-09T14:50:35.321Z,53.57
2023-05-09T14:53:04.726Z,54.40
2023-05-09T14:55:34.132Z,55.84
2023-05-09T14:58:03.426Z,55.70
2023-05-09T15:00:32.028Z,55.35
2023-05-09T15:03:00.384Z,55.86
2023-05-09T15:05:28.867Z,56.73
2023-05-09T15:07:57.135Z,56.40
2023-05-09T15:10:28.317Z,57.37
2023-05-09T15:12:57.900Z,57.61
2023-05-09T15:15:32.213Z,57.96
2023-05-09T15:18:03.360Z,58.30
2023-05-09T15:20:33.885Z,57.79
2023-05-09T15:23:02.520Z,57.21
2023-05-09T15:25:32.377Z,56.82
2023-05-09T15:28:01.075Z,57.12
2023-05-09T15:30:29.645Z,57.94
2023-05-09T15:33:00.034Z,58.54
2023-05-09T15:35:28.333Z,59.05
2023-05-09T15:37:56.831Z,58.95
2023-05-09T15:41:15.708Z,59.34
2023-05-09T15:43:44.382Z,59.67
2023-05-09T15:46:13.130Z,59.65
2023-05-09T15:48:41.839Z,59.73
2023-05-09T15:51:10.663Z,59.91
2023-05-09T15:53:39.009Z,60.54
2023-05-09T15:56:08.837Z,60.72
2023-05-09T15:58:37.824Z,59.83
2023-05-09T16:01:08.492Z,59.81
2023-05-09T16:03:38.011Z,59.99
2023-05-09T16:06:06.950Z,60.09
2023-05-09T16:08:35.707Z,60.05
2023-05-09T16:11:24.087Z,60.15
2023-05-09T16:13:53.099Z,60.76
2023-05-09T16:16:21.876Z,61.22
2023-05-09T16:18:50.438Z,61.45
2023-05-09T16:21:19.668Z,61.12
2023-05-09T16:23:48.419Z,61.07
2023-05-09T16:26:16.804Z,61.49
2023-05-09T16:28:45.184Z,60.98
2023-05-09T16:31:13.524Z,61.36
2023-05-09T16:33:42.240Z,61.45
2023-05-09T16:40:50.941Z,61.81
2023-05-09T16:43:22.238Z,62.57
2023-05-09T16:45:50.799Z,62.92
2023-05-09T16:48:19.609Z,62.72
2023-05-09T16:50:50.435Z,62.07
2023-05-09T16:53:20.354Z,62.16
2023-05-09T16:55:49.554Z,62.23
2023-05-09T16:58:18.056Z,62.20
2023-05-09T17:00:51.293Z,62.64
2023-05-09T17:03:20.324Z,62.86
2023-05-09T17:05:48.488Z,62.85
2023-05-09T17:08:37.150Z,63.25
2023-05-09T17:11:05.935Z,63.52
2023-05-09T17:13:34.463Z,63.92
2023-05-09T17:16:03.446Z,64.36
2023-05-09T17:18:37.668Z,64.17
2023-05-09T17:21:20.944Z,64.08
2023-05-09T17:23:49.011Z,63.96
2023-05-09T17:26:17.292Z,64.18
2023-05-09T17:28:45.492Z,64.18
2023-05-09T17:31:14.497Z,64.48
2023-05-09T17:33:44.064Z,64.79
2023-05-09T17:36:12.470Z,65.15
2023-05-09T17:39:06.092Z,65.12
2023-05-09T17:41:34.997Z,65.26
2023-05-09T17:44:03.755Z,64.99
2023-05-09T17:46:36.222Z,65.15
2023-05-09T17:49:04.365Z,65.46
2023-05-09T17:51:33.129Z,65.12
2023-05-09T17:54:01.188Z,65.24
2023-05-09T17:56:29.466Z,65.16
2023-05-09T17:59:00.126Z,64.84
2023-05-09T18:01:28.404Z,64.69
2023-05-09T18:03:58.672Z,64.97
2023-05-09T18:06:26.973Z,64.85
2023-05-09T18:08:55.516Z,64.94
2023-05-09T18:11:25.062Z,65.05
2023-05-09T18:13:53.634Z,64.88
2023-05-09T18:16:22.412Z,64.70
2023-05-09T18:18:51.933Z,64.23
2023-05-09T18:21:20.514Z,64.25
2023-05-09T18:23:48.886Z,64.10
2023-05-09T18:26:17.233Z,63.69
2023-05-09T18:28:45.651Z,63.80
2023-05-09T18:31:14.060Z,63.24
2023-05-09T18:33:42.448Z,62.93
2023-05-09T18:36:11.441Z,63.07
2023-05-09T18:38:42.335Z,63.22
2023-05-09T18:41:32.729Z,63.30
2023-05-09T18:44:01.006Z,63.16
2023-05-09T18:46:32.597Z,62.79
2023-05-09T18:49:02.880Z,62.74
2023-05-09T18:51:32.484Z,63.03
2023-05-09T18:54:00.761Z,63.20
2023-05-09T18:56:28.931Z,63.20
2023-05-09T18:58:57.212Z,63.14
2023-05-09T19:01:26.950Z,62.94
2023-05-09T19:03:56.036Z,63.02
2023-05-09T19:06:24.593Z,63.41
2023-05-09T19:08:54.126Z,63.58
2023-05-09T19:11:24.452Z,64.23
2023-05-09T19:13:54.599Z,64.23
2023-05-09T19:16:24.962Z,64.10
2023-05-09T19:19:02.154Z,64.03
2023-05-09T19:21:31.245Z,63.90
2023-05-09T19:23:59.714Z,63.74
2023-05-09T19:26:28.098Z,63.73
2023-05-09T19:28:56.372Z,63.28
2023-05-09T19:31:28.433Z,63.70
2023-05-09T19:33:57.121Z,64.26
2023-05-09T19:36:25.121Z,64.43
2023-05-09T19:38:54.007Z,64.41
2023-05-09T19:41:22.364Z,64.43
2023-05-09T19:43:51.856Z,64.56
2023-05-09T19:46:20.154Z,64.26
2023-05-09T19:48:48.618Z,64.15
2023-05-09T19:51:17.406Z,64.12
2023-05-09T19:53:48.031Z,64.10
2023-05-09T19:56:17.353Z,64.15
2023-05-09T19:58:51.295Z,64.05
2023-05-09T20:01:20.667Z,63.98
2023-05-09T20:03:56.438Z,64.20
2023-05-09T20:06:46.393Z,64.30
2023-05-09T20:09:22.712Z,64.44
2023-05-09T20:11:50.821Z,64.21
2023-05-09T20:14:18.963Z,63.89
2023-05-09T20:16:47.980Z,63.78
2023-05-09T20:19:19.959Z,64.05
2023-05-09T20:21:52.641Z,63.80
2023-05-09T20:24:20.891Z,63.69
2023-05-09T20:26:49.269Z,63.31
2023-05-09T20:29:17.345Z,63.25
2023-05-09T20:31:47.861Z,63.38
2023-05-09T20:34:19.241Z,63.74
2023-05-09T20:36:54.760Z,63.66
2023-05-09T20:39:26.106Z,64.41
2023-05-09T20:41:56.032Z,64.74
2023-05-09T20:44:24.300Z,64.92
2023-05-09T20:46:55.037Z,64.81
2023-05-09T20:50:14.438Z,64.45
2023-05-09T20:52:43.715Z,64.58
2023-05-09T20:55:12.197Z,64.15
2023-05-09T20:57:40.784Z,63.85
2023-05-09T21:00:11.614Z,63.82
2023-05-09T21:02:39.993Z,64.09
2023-05-09T21:05:09.922Z,64.70
2023-05-09T21:07:38.069Z,64.72
2023-05-09T21:10:10.541Z,64.66
2023-05-09T21:12:38.617Z,65.17
2023-05-09T21:15:07.817Z,65.56
2023-05-09T21:17:36.027Z,65.82
2023-05-09T21:20:05.233Z,65.84
2023-05-09T21:22:33.452Z,65.66
2023-05-09T21:25:02.787Z,65.57
2023-05-09T21:27:31.914Z,66.00
2023-05-09T21:30:00.217Z,65.84
2023-05-09T21:32:32.810Z,65.60
2023-05-09T21:35:04.688Z,65.12
2023-05-09T21:37:33.759Z,64.88
2023-05-09T21:40:05.700Z,64.68
2023-05-09T21:42:36.555Z,65.01
2023-05-09T21:45:05.751Z,65.36
2023-05-09T21:47:34.932Z,65.63
2023-05-09T21:50:04.337Z,65.56
2023-05-09T21:52:32.891Z,65.74
2023-05-09T21:55:02.021Z,66.13
2023-05-09T21:57:30.295Z,66.18
2023-05-09T22:00:02.383Z,65.98
2023-05-09T22:02:30.693Z,65.68
2023-05-09T22:04:59.039Z,65.63
2023-05-09T22:07:27.818Z,65.76
2023-05-09T22:09:56.416Z,65.75
2023-05-09T22:12:25.174Z,65.87
2023-05-09T22:14:56.659Z,65.98
2023-05-09T22:17:27.682Z,66.14
2023-05-09T22:19:55.688Z,66.68
2023-05-09T22:22:24.042Z,66.91
2023-05-09T22:24:52.605Z,67.42
2023-05-09T22:27:20.931Z,67.71
2023-05-09T22:29:49.350Z,67.89
2023-05-09T22:32:17.934Z,67.89
2023-05-09T22:34:49.588Z,67.84
2023-05-09T22:37:17.865Z,67.48
2023-05-09T22:39:48.351Z,66.72
2023-05-09T22:42:17.038Z,66.62
2023-05-09T22:44:47.912Z,66.36
2023-05-09T22:47:16.463Z,65.96
2023-05-09T22:49:45.943Z,65.37
2023-05-09T22:52:14.648Z,65.67
2023-05-09T22:54:43.272Z,66.30
2023-05-09T22:57:12.244Z,66.39
2023-05-09T22:59:40.460Z,66.99
2023-05-09T23:02:09.378Z,67.35
2023-05-09T23:05:02.511Z,67.53
2023-05-09T23:07:31.397Z,67.52
2023-05-09T23:09:59.764Z,67.56
2023-05-09T23:12:28.150Z,67.50
2023-05-09T23:14:56.307Z,67.58
2023-05-09T23:17:24.661Z,67.60
2023-05-09T23:19:53.384Z,67.63
2023-05-09T23:22:22.865Z,67.59
2023-05-09T23:24:51.310Z,67.72
2023-05-09T23:27:19.423Z,67.35
2023-05-09T23:29:47.794Z,67.08
2023-05-09T23:32:16.072Z,67.23
2023-05-09T23:34:44.253Z,66.89
2023-05-09T23:37:12.741Z,66.42
2023-05-09T23:39:41.082Z,66.53
2023-05-09T23:42:09.082Z,66.77
2023-05-09T23:44:37.191Z,66.79
2023-05-09T23:47:05.629Z,67.09
2023-05-09T23:49:34.003Z,67.05
2023-05-09T23:52:02.467Z,67.22
2023-05-09T23:54:30.962Z,67.38
2023-05-09T23:57:00.134Z,67.94
2023-05-09T23:59:28.648Z,67.59
